createdAt,value
2018-12-18T00:02:22.036Z,2.09
2018-12-18T00:07:25.259Z,2.12
2018-12-18T00:12:28.533Z,2.13
2018-12-18T00:17:31.720Z,2.15
2018-12-18T00:22:34.924Z,2.12
2018-12-18T00:27:38.111Z,2.12
2018-12-18T00:32:41.281Z,2.11
2018-12-18T00:37:44.426Z,2.18
2018-12-18T00:42:47.618Z,2.25
2018-12-18T00:47:50.819Z,2.30
2018-12-18T00:52:54.079Z,2.25
2018-12-18T00:58:05.390Z,2.28
2018-12-18T01:03:10.186Z,2.34
2018-12-18T01:08:13.446Z,2.43
2018-12-18T01:13:16.750Z,2.46
2018-12-18T01:18:20.192Z,2.45
2018-12-18T01:23:23.343Z,2.43
2018-12-18T01:28:26.692Z,2.52
2018-12-18T01:33:29.913Z,2.47
2018-12-18T01:38:33.247Z,2.49
2018-12-18T01:43:36.548Z,2.51
2018-12-18T01:48:39.958Z,2.54
2018-12-18T01:53:43.241Z,2.53
2018-12-18T01:58:46.511Z,2.57
2018-12-18T02:03:49.712Z,2.59
2018-12-18T02:08:53.215Z,2.60
2018-12-18T02:13:56.530Z,2.61
2018-12-18T02:18:59.857Z,2.68
2018-12-18T02:24:03.386Z,2.71
2018-12-18T02:29:06.687Z,2.69
2018-12-18T02:34:13.693Z,2.68
2018-12-18T02:39:15.345Z,2.71
2018-12-18T02:44:18.681Z,2.72
2018-12-18T02:49:22.262Z,2.71
2018-12-18T02:54:25.508Z,2.74
2018-12-18T02:59:30.160Z,2.73
2018-12-18T03:04:34.384Z,2.78
2018-12-18T03:09:37.840Z,2.80
2018-12-18T03:14:40.953Z,2.82
2018-12-18T03:19:44.141Z,2.86
2018-12-18T03:24:47.360Z,2.85
2018-12-18T03:29:50.555Z,2.87
2018-12-18T03:34:54.046Z,2.83
2018-12-18T03:39:57.254Z,2.82
2018-12-18T03:45:00.588Z,2.80
2018-12-18T03:50:04.260Z,2.72
2018-12-18T03:55:07.625Z,2.64
2018-12-18T04:00:17.556Z,2.59
2018-12-18T04:05:20.706Z,2.58
2018-12-18T04:10:23.903Z,2.54
2018-12-18T04:15:27.364Z,2.49
2018-12-18T04:20:30.613Z,2.49
2018-12-18T04:25:33.880Z,2.57
2018-12-18T04:30:37.017Z,2.62
2018-12-18T04:35:40.440Z,2.68
2018-12-18T04:40:43.956Z,2.77
2018-12-18T04:45:47.279Z,2.72
2018-12-18T04:50:50.594Z,2.78
2018-12-18T04:55:54.579Z,2.76
2018-12-18T05:00:57.907Z,2.71
2018-12-18T05:06:01.302Z,2.70
2018-12-18T05:11:04.965Z,2.69
2018-12-18T05:16:08.208Z,2.69
2018-12-18T05:21:11.505Z,2.74
2018-12-18T05:26:14.682Z,2.81
2018-12-18T05:31:17.872Z,2.76
2018-12-18T05:36:21.201Z,2.78
2018-12-18T05:41:24.482Z,2.78
2018-12-18T05:46:27.593Z,2.75
2018-12-18T05:51:30.836Z,2.75
2018-12-18T05:56:34.271Z,2.76
2018-12-18T06:01:37.450Z,2.81
2018-12-18T06:06:40.916Z,2.85
2018-12-18T06:11:44.230Z,2.80
2018-12-18T06:16:47.770Z,2.84
2018-12-18T06:21:51.398Z,2.90
2018-12-18T06:26:54.818Z,2.85
2018-12-18T06:31:58.010Z,2.89
2018-12-18T06:37:01.240Z,2.96
2018-12-18T06:42:04.580Z,2.95
2018-12-18T06:47:09.349Z,2.93
2018-12-18T06:52:12.462Z,2.97
2018-12-18T06:57:15.688Z,2.97
2018-12-18T07:02:18.812Z,2.92
2018-12-18T07:07:22.134Z,2.86
2018-12-18T07:12:25.327Z,2.83
2018-12-18T07:17:28.504Z,2.85
2018-12-18T07:22:31.650Z,2.87
2018-12-18T07:27:35.297Z,2.95
2018-12-18T07:32:38.447Z,3.04
2018-12-18T07:37:41.630Z,3.13
2018-12-18T07:42:44.755Z,3.19
2018-12-18T07:47:47.923Z,3.22
2018-12-18T07:52:51.518Z,3.29
2018-12-18T07:57:55.589Z,3.40
2018-12-18T08:02:59.409Z,3.42
2018-12-18T08:08:02.630Z,3.51
2018-12-18T08:13:06.502Z,3.64
2018-12-18T08:18:10.033Z,3.75
2018-12-18T08:23:13.217Z,3.84
2018-12-18T08:28:16.549Z,4.05
2018-12-18T08:33:20.076Z,4.17
2018-12-18T08:38:23.319Z,4.26
2018-12-18T08:43:26.475Z,4.35
2018-12-18T08:48:29.616Z,4.44
2018-12-18T08:53:32.920Z,4.56
2018-12-18T08:58:36.120Z,4.64
2018-12-18T09:03:39.331Z,4.76
2018-12-18T09:08:42.561Z,4.75
2018-12-18T09:13:45.762Z,4.77
2018-12-18T09:18:55.097Z,4.78
2018-12-18T09:23:58.332Z,4.67
2018-12-18T09:29:01.630Z,4.57
2018-12-18T09:34:04.839Z,4.53
2018-12-18T09:39:08.052Z,4.55
2018-12-18T09:44:11.260Z,4.55
2018-12-18T09:49:14.570Z,4.63
2018-12-18T09:54:17.811Z,4.65
2018-12-18T09:59:21.036Z,4.63
2018-12-18T10:04:24.244Z,4.72
2018-12-18T10:09:27.464Z,4.88
2018-12-18T10:14:31.362Z,4.94
2018-12-18T10:19:34.767Z,4.97
2018-12-18T10:24:37.997Z,4.90
2018-12-18T10:29:41.297Z,4.88
2018-12-18T10:34:44.682Z,5.12
2018-12-18T10:39:48.107Z,5.16
2018-12-18T10:44:51.712Z,5.23
2018-12-18T10:49:55.014Z,5.31
2018-12-18T10:54:58.262Z,5.33
2018-12-18T11:00:01.457Z,5.55
2018-12-18T11:05:04.831Z,5.71
2018-12-18T11:10:08.226Z,5.82
2018-12-18T11:15:11.520Z,6.15
2018-12-18T11:20:14.721Z,7.59
2018-12-18T11:25:18.326Z,8.64
2018-12-18T11:30:21.577Z,8.95
2018-12-18T11:35:25.424Z,9.70
2018-12-18T11:40:28.691Z,10.10
2018-12-18T11:45:31.815Z,9.41
2018-12-18T11:50:35.010Z,9.33
2018-12-18T11:55:38.548Z,8.63
2018-12-18T12:00:41.955Z,8.21
2018-12-18T12:05:46.645Z,7.77
2018-12-18T12:10:50.294Z,7.96
2018-12-18T12:15:53.473Z,7.92
2018-12-18T12:20:56.718Z,7.90
2018-12-18T12:25:59.923Z,7.80
2018-12-18T12:31:03.371Z,7.10
2018-12-18T12:36:08.691Z,6.55
2018-12-18T12:41:12.822Z,6.35
2018-12-18T12:46:15.971Z,6.19
2018-12-18T12:51:19.200Z,6.37
2018-12-18T12:56:22.408Z,6.40
2018-12-18T13:01:25.622Z,6.05
2018-12-18T13:06:29.069Z,5.78
2018-12-18T13:11:32.761Z,5.74
2018-12-18T13:16:35.957Z,5.67
2018-12-18T13:21:39.164Z,6.04
2018-12-18T13:26:42.474Z,6.36
2018-12-18T13:31:45.625Z,6.58
2018-12-18T13:36:48.887Z,6.54
2018-12-18T13:41:52.176Z,6.34
2018-12-18T13:46:55.284Z,6.28
2018-12-18T13:51:58.507Z,6.17
2018-12-18T13:57:01.723Z,6.55
2018-12-18T14:02:04.949Z,6.59
2018-12-18T14:07:08.085Z,6.49
2018-12-18T14:12:11.404Z,6.06
2018-12-18T14:17:15.388Z,5.61
2018-12-18T14:22:19.152Z,5.36
2018-12-18T14:27:23.098Z,5.16
2018-12-18T14:32:26.345Z,4.84
2018-12-18T14:37:29.579Z,4.50
2018-12-18T14:42:35.015Z,4.25
2018-12-18T14:47:40.368Z,3.81
2018-12-18T14:52:43.624Z,3.48
2018-12-18T14:57:47.298Z,3.24
2018-12-18T15:02:51.237Z,2.99
2018-12-18T15:07:55.241Z,2.74
2018-12-18T15:12:58.476Z,2.53
2018-12-18T15:18:03.466Z,2.44
2018-12-18T15:23:06.702Z,2.46
2018-12-18T15:28:10.508Z,2.43
2018-12-18T15:33:13.813Z,2.52
2018-12-18T15:38:16.957Z,2.33
2018-12-18T15:43:21.247Z,2.09
2018-12-18T15:48:24.663Z,1.97
2018-12-18T15:53:27.973Z,1.93
2018-12-18T15:58:40.378Z,1.90
2018-12-18T16:03:47.897Z,1.79
2018-12-18T16:08:52.846Z,1.51
2018-12-18T16:13:57.431Z,1.65
2018-12-18T16:19:01.049Z,1.58
2018-12-18T16:24:04.477Z,1.54
2018-12-18T16:29:07.736Z,1.46
2018-12-18T16:34:10.931Z,1.56
2018-12-18T16:39:14.171Z,1.49
2018-12-18T16:44:17.365Z,1.57
2018-12-18T16:49:21.324Z,1.32
2018-12-18T16:54:24.720Z,1.09
2018-12-18T16:59:28.328Z,0.87
2018-12-18T17:04:31.531Z,0.83
2018-12-18T17:09:34.931Z,1.00
2018-12-18T17:14:38.344Z,1.18
2018-12-18T17:19:41.597Z,1.07
2018-12-18T17:24:44.847Z,1.04
2018-12-18T17:29:48.171Z,0.96
2018-12-18T17:34:51.407Z,0.67
2018-12-18T17:39:54.635Z,0.68
2018-12-18T17:44:57.877Z,0.46
2018-12-18T17:50:01.246Z,0.52
2018-12-18T17:55:04.772Z,0.25
2018-12-18T18:00:09.171Z,0.14
2018-12-18T18:05:13.626Z,0.05
2018-12-18T18:10:18.111Z,-0.09
2018-12-18T18:15:21.614Z,-0.29
2018-12-18T18:20:25.097Z,-0.41
2018-12-18T18:25:30.848Z,-0.46
2018-12-18T18:30:34.089Z,-0.53
2018-12-18T18:35:37.479Z,-0.65
2018-12-18T18:40:40.736Z,-0.78
2018-12-18T18:45:44.083Z,-0.78
2018-12-18T18:50:51.406Z,-0.80
2018-12-18T18:55:54.751Z,-0.62
2018-12-18T19:00:58.121Z,-0.50
2018-12-18T19:06:01.553Z,-0.33
2018-12-18T19:11:04.812Z,-0.34
2018-12-18T19:16:07.997Z,-0.37
2018-12-18T19:21:11.368Z,-0.29
2018-12-18T19:26:15.253Z,-0.36
2018-12-18T19:31:18.732Z,-0.24
2018-12-18T19:36:22.006Z,-0.09
2018-12-18T19:41:25.294Z,-0.08
2018-12-18T19:46:28.652Z,-0.02
2018-12-18T19:51:31.969Z,0.00
2018-12-18T19:56:35.142Z,0.20
2018-12-18T20:01:38.658Z,0.40
2018-12-18T20:06:41.896Z,0.54
2018-12-18T20:11:45.332Z,0.43
2018-12-18T20:16:48.632Z,0.28
2018-12-18T20:21:51.892Z,0.20
2018-12-18T20:26:55.109Z,0.20
2018-12-18T20:31:58.474Z,0.19
2018-12-18T20:37:01.736Z,0.62
2018-12-18T20:42:11.462Z,0.55
2018-12-18T20:47:19.142Z,0.47
2018-12-18T20:52:24.983Z,0.23
2018-12-18T20:57:30.814Z,0.17
2018-12-18T21:02:37.377Z,0.14
2018-12-18T21:07:44.025Z,0.11
2018-12-18T21:12:49.952Z,0.12
2018-12-18T21:17:55.565Z,0.17
2018-12-18T21:23:00.980Z,0.22
2018-12-18T21:28:04.380Z,0.28
2018-12-18T21:33:07.739Z,0.11
2018-12-18T21:38:11.209Z,-0.02
2018-12-18T21:43:14.533Z,0.17
2018-12-18T21:48:17.962Z,0.04
2018-12-18T21:53:22.222Z,-0.23
2018-12-18T21:58:25.543Z,-0.28
2018-12-18T22:03:29.182Z,-0.36
2018-12-18T22:08:36.819Z,-0.33
2018-12-18T22:13:37.589Z,-0.24
2018-12-18T22:18:42.896Z,-0.16
2018-12-18T22:23:46.792Z,-0.17
2018-12-18T22:28:50.248Z,-0.28
2018-12-18T22:33:53.693Z,-0.27
2018-12-18T22:38:57.317Z,-0.31
2018-12-18T22:44:00.633Z,-0.45
2018-12-18T22:49:03.994Z,-0.44
2018-12-18T22:54:07.396Z,-0.56
2018-12-18T22:59:10.783Z,-0.65
2018-12-18T23:04:14.996Z,-0.76
2018-12-18T23:09:18.189Z,-0.94
2018-12-18T23:14:21.456Z,-0.94
2018-12-18T23:19:24.734Z,-0.95
2018-12-18T23:24:28.190Z,-0.84
2018-12-18T23:29:31.407Z,-0.91
2018-12-18T23:34:34.846Z,-0.90
2018-12-18T23:39:38.079Z,-0.92
2018-12-18T23:44:41.470Z,-0.76
2018-12-18T23:49:44.853Z,-0.88
2018-12-18T23:54:48.968Z,-0.82
2018-12-18T23:59:52.176Z,-0.77
